sensor_id;sensor_type;location;lat;lon;timestamp;temperature;humidity
42965;DHT22;28604;51.204;22.552;2023-03-18T00:01:26;3.60;64.50
42965;DHT22;28604;51.204;22.552;2023-03-18T00:03:53;3.60;64.30
42965;DHT22;28604;51.204;22.552;2023-03-18T00:06:19;3.60;64.50
42965;DHT22;28604;51.204;22.552;2023-03-18T00:08:47;3.60;64.80
42965;DHT22;28604;51.204;22.552;2023-03-18T00:11:15;3.50;65.20
42965;DHT22;28604;51.204;22.552;2023-03-18T00:13:43;3.50;64.60
42965;DHT22;28604;51.204;22.552;2023-03-18T00:16:10;3.50;65.10
42965;DHT22;28604;51.204;22.552;2023-03-18T00:18:37;3.50;65.10
42965;DHT22;28604;51.204;22.552;2023-03-18T00:21:04;3.50;64.70
42965;DHT22;28604;51.204;22.552;2023-03-18T00:23:31;3.50;64.40
42965;DHT22;28604;51.204;22.552;2023-03-18T00:25:58;3.50;64.90
42965;DHT22;28604;51.204;22.552;2023-03-18T00:28:25;3.40;64.80
42965;DHT22;28604;51.204;22.552;2023-03-18T00:30:53;3.50;64.30
42965;DHT22;28604;51.204;22.552;2023-03-18T00:33:19;3.50;64.40
42965;DHT22;28604;51.204;22.552;2023-03-18T00:35:46;3.40;65.00
42965;DHT22;28604;51.204;22.552;2023-03-18T00:38:13;3.40;65.00
42965;DHT22;28604;51.204;22.552;2023-03-18T00:40:50;3.40;64.40
42965;DHT22;28604;51.204;22.552;2023-03-18T00:43:29;3.40;64.90
42965;DHT22;28604;51.204;22.552;2023-03-18T00:45:59;3.30;65.10
42965;DHT22;28604;51.204;22.552;2023-03-18T00:48:25;3.40;65.20
42965;DHT22;28604;51.204;22.552;2023-03-18T00:50:52;3.30;64.50
42965;DHT22;28604;51.204;22.552;2023-03-18T00:53:18;3.30;65.50
42965;DHT22;28604;51.204;22.552;2023-03-18T00:55:45;3.30;65.20
42965;DHT22;28604;51.204;22.552;2023-03-18T00:58:11;3.30;65.40
42965;DHT22;28604;51.204;22.552;2023-03-18T01:00:39;3.30;65.20
42965;DHT22;28604;51.204;22.552;2023-03-18T01:03:06;3.20;65.20
42965;DHT22;28604;51.204;22.552;2023-03-18T01:05:33;3.20;65.50
42965;DHT22;28604;51.204;22.552;2023-03-18T01:08:01;3.20;65.70
42965;DHT22;28604;51.204;22.552;2023-03-18T01:10:27;3.20;65.60
42965;DHT22;28604;51.204;22.552;2023-03-18T01:12:56;3.30;65.30
42965;DHT22;28604;51.204;22.552;2023-03-18T01:15:23;3.30;65.10
42965;DHT22;28604;51.204;22.552;2023-03-18T01:17:49;3.20;65.10
42965;DHT22;28604;51.204;22.552;2023-03-18T01:20:18;3.10;65.30
42965;DHT22;28604;51.204;22.552;2023-03-18T01:22:47;3.00;65.40
42965;DHT22;28604;51.204;22.552;2023-03-18T01:25:13;3.10;65.50
42965;DHT22;28604;51.204;22.552;2023-03-18T01:27:47;3.10;65.70
42965;DHT22;28604;51.204;22.552;2023-03-18T01:30:14;3.10;65.80
42965;DHT22;28604;51.204;22.552;2023-03-18T01:32:41;3.10;66.30
42965;DHT22;28604;51.204;22.552;2023-03-18T01:35:09;3.00;66.20
42965;DHT22;28604;51.204;22.552;2023-03-18T01:37:37;3.10;66.10
42965;DHT22;28604;51.204;22.552;2023-03-18T01:40:11;3.00;66.40
42965;DHT22;28604;51.204;22.552;2023-03-18T01:42:38;2.90;67.00
42965;DHT22;28604;51.204;22.552;2023-03-18T01:45:33;2.90;67.00
42965;DHT22;28604;51.204;22.552;2023-03-18T01:48:00;2.80;67.20
42965;DHT22;28604;51.204;22.552;2023-03-18T01:50:31;2.70;67.40
42965;DHT22;28604;51.204;22.552;2023-03-18T01:53:02;2.70;67.50
42965;DHT22;28604;51.204;22.552;2023-03-18T01:55:30;2.70;67.70
42965;DHT22;28604;51.204;22.552;2023-03-18T01:58:03;2.70;67.60
42965;DHT22;28604;51.204;22.552;2023-03-18T02:00:34;2.80;67.50
42965;DHT22;28604;51.204;22.552;2023-03-18T02:03:02;2.70;67.90
42965;DHT22;28604;51.204;22.552;2023-03-18T02:05:29;2.60;67.70
42965;DHT22;28604;51.204;22.552;2023-03-18T02:07:55;2.60;67.90
42965;DHT22;28604;51.204;22.552;2023-03-18T02:10:25;2.60;68.10
42965;DHT22;28604;51.204;22.552;2023-03-18T02:12:58;2.60;68.20
42965;DHT22;28604;51.204;22.552;2023-03-18T02:15:37;2.60;68.10
42965;DHT22;28604;51.204;22.552;2023-03-18T02:18:20;2.60;68.50
42965;DHT22;28604;51.204;22.552;2023-03-18T02:26:59;2.40;68.90
42965;DHT22;28604;51.204;22.552;2023-03-18T02:29:34;2.40;68.60
42965;DHT22;28604;51.204;22.552;2023-03-18T02:32:05;2.40;69.00
42965;DHT22;28604;51.204;22.552;2023-03-18T02:34:33;2.40;68.90
42965;DHT22;28604;51.204;22.552;2023-03-18T02:36:59;2.30;69.70
42965;DHT22;28604;51.204;22.552;2023-03-18T02:39:26;2.30;69.60
42965;DHT22;28604;51.204;22.552;2023-03-18T02:41:56;2.40;69.40
42965;DHT22;28604;51.204;22.552;2023-03-18T02:44:22;2.30;69.40
42965;DHT22;28604;51.204;22.552;2023-03-18T02:47:16;2.40;69.60
42965;DHT22;28604;51.204;22.552;2023-03-18T02:49:43;2.30;69.40
42965;DHT22;28604;51.204;22.552;2023-03-18T02:52:10;2.30;69.90
42965;DHT22;28604;51.204;22.552;2023-03-18T02:54:36;2.20;69.90
42965;DHT22;28604;51.204;22.552;2023-03-18T02:57:03;2.20;70.10
42965;DHT22;28604;51.204;22.552;2023-03-18T02:59:29;2.30;69.90
42965;DHT22;28604;51.204;22.552;2023-03-18T03:01:57;2.30;70.00
42965;DHT22;28604;51.204;22.552;2023-03-18T03:04:24;2.20;70.00
42965;DHT22;28604;51.204;22.552;2023-03-18T03:06:52;2.20;70.30
42965;DHT22;28604;51.204;22.552;2023-03-18T03:09:29;2.20;70.10
42965;DHT22;28604;51.204;22.552;2023-03-18T03:11:55;2.20;70.20
42965;DHT22;28604;51.204;22.552;2023-03-18T03:14:23;2.10;70.40
42965;DHT22;28604;51.204;22.552;2023-03-18T03:16:54;2.10;70.50
42965;DHT22;28604;51.204;22.552;2023-03-18T03:19:22;2.00;70.60
42965;DHT22;28604;51.204;22.552;2023-03-18T03:21:48;2.00;70.80
42965;DHT22;28604;51.204;22.552;2023-03-18T03:24:14;1.90;71.00
42965;DHT22;28604;51.204;22.552;2023-03-18T03:26:40;1.90;71.10
42965;DHT22;28604;51.204;22.552;2023-03-18T03:29:06;1.90;71.50
42965;DHT22;28604;51.204;22.552;2023-03-18T03:31:33;2.00;71.10
42965;DHT22;28604;51.204;22.552;2023-03-18T03:33:59;1.90;71.20
42965;DHT22;28604;51.204;22.552;2023-03-18T03:36:25;1.90;71.00
42965;DHT22;28604;51.204;22.552;2023-03-18T03:38:51;1.90;71.10
42965;DHT22;28604;51.204;22.552;2023-03-18T03:41:17;1.90;71.40
42965;DHT22;28604;51.204;22.552;2023-03-18T03:43:43;1.90;71.20
42965;DHT22;28604;51.204;22.552;2023-03-18T03:46:10;1.90;71.50
42965;DHT22;28604;51.204;22.552;2023-03-18T03:48:37;1.80;71.50
42965;DHT22;28604;51.204;22.552;2023-03-18T03:51:06;1.80;71.40
42965;DHT22;28604;51.204;22.552;2023-03-18T03:53:32;1.70;71.80
42965;DHT22;28604;51.204;22.552;2023-03-18T03:55:59;1.70;72.10
42965;DHT22;28604;51.204;22.552;2023-03-18T03:58:25;1.70;71.90
42965;DHT22;28604;51.204;22.552;2023-03-18T04:00:51;1.70;72.00
42965;DHT22;28604;51.204;22.552;2023-03-18T04:03:17;1.70;71.80
42965;DHT22;28604;51.204;22.552;2023-03-18T04:05:43;1.80;71.90
42965;DHT22;28604;51.204;22.552;2023-03-18T04:08:10;1.70;71.70
42965;DHT22;28604;51.204;22.552;2023-03-18T04:10:38;1.70;71.70
42965;DHT22;28604;51.204;22.552;2023-03-18T04:13:07;1.70;71.50
42965;DHT22;28604;51.204;22.552;2023-03-18T04:15:34;1.70;72.00
42965;DHT22;28604;51.204;22.552;2023-03-18T04:18:06;1.60;72.00
42965;DHT22;28604;51.204;22.552;2023-03-18T04:20:37;1.60;71.70
42965;DHT22;28604;51.204;22.552;2023-03-18T04:23:10;1.70;71.70
42965;DHT22;28604;51.204;22.552;2023-03-18T04:25:36;1.50;72.10
42965;DHT22;28604;51.204;22.552;2023-03-18T04:28:03;1.50;72.40
42965;DHT22;28604;51.204;22.552;2023-03-18T04:30:29;1.60;72.20
42965;DHT22;28604;51.204;22.552;2023-03-18T04:33:00;1.60;71.90
42965;DHT22;28604;51.204;22.552;2023-03-18T04:35:29;1.60;72.00
42965;DHT22;28604;51.204;22.552;2023-03-18T04:37:55;1.60;71.80
42965;DHT22;28604;51.204;22.552;2023-03-18T04:40:23;1.60;72.20
42965;DHT22;28604;51.204;22.552;2023-03-18T04:42:49;1.60;71.80
42965;DHT22;28604;51.204;22.552;2023-03-18T04:45:18;1.60;72.30
42965;DHT22;28604;51.204;22.552;2023-03-18T04:47:45;1.60;72.40
42965;DHT22;28604;51.204;22.552;2023-03-18T04:50:13;1.50;72.70
42965;DHT22;28604;51.204;22.552;2023-03-18T04:52:40;1.60;72.40
42965;DHT22;28604;51.204;22.552;2023-03-18T04:55:08;1.60;72.20
42965;DHT22;28604;51.204;22.552;2023-03-18T04:57:37;1.60;72.40
42965;DHT22;28604;51.204;22.552;2023-03-18T05:00:09;1.60;72.50
42965;DHT22;28604;51.204;22.552;2023-03-18T05:02:40;1.60;72.60
42965;DHT22;28604;51.204;22.552;2023-03-18T05:05:08;1.60;72.50
42965;DHT22;28604;51.204;22.552;2023-03-18T05:07:39;1.60;72.60
42965;DHT22;28604;51.204;22.552;2023-03-18T05:10:10;1.60;72.10
42965;DHT22;28604;51.204;22.552;2023-03-18T05:12:37;1.60;72.80
42965;DHT22;28604;51.204;22.552;2023-03-18T05:15:05;1.70;71.90
42965;DHT22;28604;51.204;22.552;2023-03-18T05:17:32;1.60;71.40
42965;DHT22;28604;51.204;22.552;2023-03-18T05:20:02;1.70;71.60
42965;DHT22;28604;51.204;22.552;2023-03-18T05:22:28;1.70;71.80
42965;DHT22;28604;51.204;22.552;2023-03-18T05:25:04;1.80;71.70
42965;DHT22;28604;51.204;22.552;2023-03-18T05:27:31;1.90;71.50
42965;DHT22;28604;51.204;22.552;2023-03-18T05:30:03;1.90;71.10
42965;DHT22;28604;51.204;22.552;2023-03-18T05:32:38;2.00;70.90
42965;DHT22;28604;51.204;22.552;2023-03-18T05:35:07;2.10;70.30
42965;DHT22;28604;51.204;22.552;2023-03-18T05:37:42;2.20;70.00
42965;DHT22;28604;51.204;22.552;2023-03-18T05:40:08;2.30;69.70
42965;DHT22;28604;51.204;22.552;2023-03-18T05:42:38;2.40;69.20
42965;DHT22;28604;51.204;22.552;2023-03-18T05:45:07;2.60;69.00
42965;DHT22;28604;51.204;22.552;2023-03-18T05:47:35;2.70;68.80
42965;DHT22;28604;51.204;22.552;2023-03-18T05:50:08;2.80;68.10
42965;DHT22;28604;51.204;22.552;2023-03-18T05:52:35;3.00;68.10
42965;DHT22;28604;51.204;22.552;2023-03-18T05:55:06;3.20;67.30
42965;DHT22;28604;51.204;22.552;2023-03-18T05:57:35;3.40;67.30
42965;DHT22;28604;51.204;22.552;2023-03-18T06:00:06;3.70;66.30
42965;DHT22;28604;51.204;22.552;2023-03-18T06:02:41;4.00;66.00
42965;DHT22;28604;51.204;22.552;2023-03-18T06:05:09;4.30;64.70
42965;DHT22;28604;51.204;22.552;2023-03-18T06:07:35;4.50;64.50
42965;DHT22;28604;51.204;22.552;2023-03-18T06:10:01;4.80;63.80
42965;DHT22;28604;51.204;22.552;2023-03-18T06:12:27;5.00;62.90
42965;DHT22;28604;51.204;22.552;2023-03-18T06:14:54;5.30;62.70
42965;DHT22;28604;51.204;22.552;2023-03-18T06:17:21;5.40;61.70
42965;DHT22;28604;51.204;22.552;2023-03-18T06:19:48;5.60;62.70
42965;DHT22;28604;51.204;22.552;2023-03-18T06:22:14;5.90;61.70
42965;DHT22;28604;51.204;22.552;2023-03-18T06:24:44;5.90;61.00
42965;DHT22;28604;51.204;22.552;2023-03-18T06:27:10;6.10;60.40
42965;DHT22;28604;51.204;22.552;2023-03-18T06:29:39;6.40;59.70
42965;DHT22;28604;51.204;22.552;2023-03-18T06:32:10;6.60;58.90
42965;DHT22;28604;51.204;22.552;2023-03-18T06:34:38;6.90;58.00
42965;DHT22;28604;51.204;22.552;2023-03-18T06:37:05;7.00;57.50
42965;DHT22;28604;51.204;22.552;2023-03-18T06:39:33;7.20;56.40
42965;DHT22;28604;51.204;22.552;2023-03-18T06:42:03;7.40;56.20
42965;DHT22;28604;51.204;22.552;2023-03-18T06:44:31;7.50;56.60
42965;DHT22;28604;51.204;22.552;2023-03-18T06:47:07;7.70;56.50
42965;DHT22;28604;51.204;22.552;2023-03-18T06:49:37;7.90;54.90
42965;DHT22;28604;51.204;22.552;2023-03-18T06:52:11;8.20;55.10
42965;DHT22;28604;51.204;22.552;2023-03-18T06:54:40;8.40;54.60
42965;DHT22;28604;51.204;22.552;2023-03-18T06:57:06;8.60;53.90
42965;DHT22;28604;51.204;22.552;2023-03-18T06:59:34;8.80;52.50
42965;DHT22;28604;51.204;22.552;2023-03-18T07:02:04;9.10;53.00
42965;DHT22;28604;51.204;22.552;2023-03-18T07:04:31;9.30;52.80
42965;DHT22;28604;51.204;22.552;2023-03-18T07:06:58;9.50;52.80
42965;DHT22;28604;51.204;22.552;2023-03-18T07:09:26;9.70;51.00
42965;DHT22;28604;51.204;22.552;2023-03-18T07:11:55;9.80;51.30
42965;DHT22;28604;51.204;22.552;2023-03-18T07:14:22;9.90;51.10
42965;DHT22;28604;51.204;22.552;2023-03-18T07:16:48;10.00;51.80
42965;DHT22;28604;51.204;22.552;2023-03-18T07:19:15;10.20;51.60
42965;DHT22;28604;51.204;22.552;2023-03-18T07:21:42;10.40;50.00
42965;DHT22;28604;51.204;22.552;2023-03-18T07:24:11;10.50;49.40
42965;DHT22;28604;51.204;22.552;2023-03-18T07:26:37;10.80;50.40
42965;DHT22;28604;51.204;22.552;2023-03-18T07:29:04;11.00;50.10
42965;DHT22;28604;51.204;22.552;2023-03-18T07:31:31;11.30;48.70
42965;DHT22;28604;51.204;22.552;2023-03-18T07:33:57;11.40;48.50
42965;DHT22;28604;51.204;22.552;2023-03-18T07:36:24;11.50;49.00
42965;DHT22;28604;51.204;22.552;2023-03-18T07:38:50;11.70;48.20
42965;DHT22;28604;51.204;22.552;2023-03-18T07:41:16;12.00;47.90
42965;DHT22;28604;51.204;22.552;2023-03-18T07:43:42;12.20;48.30
42965;DHT22;28604;51.204;22.552;2023-03-18T07:46:08;12.40;47.40
42965;DHT22;28604;51.204;22.552;2023-03-18T07:48:34;12.50;45.60
42965;DHT22;28604;51.204;22.552;2023-03-18T07:51:01;12.30;46.10
42965;DHT22;28604;51.204;22.552;2023-03-18T07:53:27;12.70;47.60
42965;DHT22;28604;51.204;22.552;2023-03-18T07:55:53;12.90;46.20
42965;DHT22;28604;51.204;22.552;2023-03-18T07:58:19;13.00;46.50
42965;DHT22;28604;51.204;22.552;2023-03-18T08:00:45;13.20;45.40
42965;DHT22;28604;51.204;22.552;2023-03-18T08:03:12;13.50;45.10
42965;DHT22;28604;51.204;22.552;2023-03-18T08:05:39;13.40;43.80
42965;DHT22;28604;51.204;22.552;2023-03-18T08:08:06;13.30;44.20
42965;DHT22;28604;51.204;22.552;2023-03-18T08:10:32;13.30;44.00
42965;DHT22;28604;51.204;22.552;2023-03-18T08:12:58;13.40;43.90
42965;DHT22;28604;51.204;22.552;2023-03-18T08:15:24;13.30;44.70
42965;DHT22;28604;51.204;22.552;2023-03-18T08:17:51;13.50;44.40
42965;DHT22;28604;51.204;22.552;2023-03-18T08:20:20;13.50;43.70
42965;DHT22;28604;51.204;22.552;2023-03-18T08:22:47;13.50;44.70
42965;DHT22;28604;51.204;22.552;2023-03-18T08:25:15;13.40;44.30
42965;DHT22;28604;51.204;22.552;2023-03-18T08:27:41;13.50;45.40
42965;DHT22;28604;51.204;22.552;2023-03-18T08:30:09;13.70;44.60
42965;DHT22;28604;51.204;22.552;2023-03-18T08:32:35;13.80;43.40
42965;DHT22;28604;51.204;22.552;2023-03-18T08:35:02;13.70;44.30
42965;DHT22;28604;51.204;22.552;2023-03-18T08:37:28;13.80;44.60
42965;DHT22;28604;51.204;22.552;2023-03-18T08:39:53;14.00;44.70
42965;DHT22;28604;51.204;22.552;2023-03-18T08:42:20;14.20;44.00
42965;DHT22;28604;51.204;22.552;2023-03-18T08:44:45;13.90;42.70
42965;DHT22;28604;51.204;22.552;2023-03-18T08:47:12;13.70;44.00
42965;DHT22;28604;51.204;22.552;2023-03-18T08:49:37;13.40;44.10
42965;DHT22;28604;51.204;22.552;2023-03-18T08:52:04;13.60;44.40
42965;DHT22;28604;51.204;22.552;2023-03-18T08:54:31;13.70;44.30
42965;DHT22;28604;51.204;22.552;2023-03-18T08:56:57;13.50;43.40
42965;DHT22;28604;51.204;22.552;2023-03-18T08:59:25;13.50;44.40
42965;DHT22;28604;51.204;22.552;2023-03-18T09:01:51;13.80;44.60
42965;DHT22;28604;51.204;22.552;2023-03-18T09:04:18;13.70;43.80
42965;DHT22;28604;51.204;22.552;2023-03-18T09:06:45;13.80;44.50
42965;DHT22;28604;51.204;22.552;2023-03-18T09:09:13;13.90;43.40
42965;DHT22;28604;51.204;22.552;2023-03-18T09:11:40;14.10;44.30
42965;DHT22;28604;51.204;22.552;2023-03-18T09:14:06;14.10;44.10
42965;DHT22;28604;51.204;22.552;2023-03-18T09:16:33;13.80;44.40
42965;DHT22;28604;51.204;22.552;2023-03-18T09:19:00;13.90;44.90
42965;DHT22;28604;51.204;22.552;2023-03-18T09:21:26;14.20;44.90
42965;DHT22;28604;51.204;22.552;2023-03-18T09:23:52;14.40;44.20
42965;DHT22;28604;51.204;22.552;2023-03-18T09:26:19;14.40;43.60
42965;DHT22;28604;51.204;22.552;2023-03-18T09:28:45;14.50;43.50
42965;DHT22;28604;51.204;22.552;2023-03-18T09:31:11;14.40;43.50
42965;DHT22;28604;51.204;22.552;2023-03-18T09:33:38;14.40;43.90
42965;DHT22;28604;51.204;22.552;2023-03-18T09:36:04;14.50;44.30
42965;DHT22;28604;51.204;22.552;2023-03-18T09:38:30;14.50;44.00
42965;DHT22;28604;51.204;22.552;2023-03-18T09:52:25;14.80;43.00
42965;DHT22;28604;51.204;22.552;2023-03-18T09:57:27;14.60;42.90
42965;DHT22;28604;51.204;22.552;2023-03-18T10:00:11;14.70;43.00
42965;DHT22;28604;51.204;22.552;2023-03-18T10:02:59;14.90;43.10
42965;DHT22;28604;51.204;22.552;2023-03-18T10:05:49;15.20;43.00
42965;DHT22;28604;51.204;22.552;2023-03-18T10:11:07;15.00;42.20
42965;DHT22;28604;51.204;22.552;2023-03-18T10:13:44;14.70;42.20
42965;DHT22;28604;51.204;22.552;2023-03-18T10:16:19;14.60;42.90
42965;DHT22;28604;51.204;22.552;2023-03-18T10:18:46;14.70;44.60
42965;DHT22;28604;51.204;22.552;2023-03-18T10:26:47;15.00;42.90
42965;DHT22;28604;51.204;22.552;2023-03-18T10:30:02;15.10;43.20
42965;DHT22;28604;51.204;22.552;2023-03-18T10:32:39;15.30;42.50
42965;DHT22;28604;51.204;22.552;2023-03-18T10:37:59;15.50;41.80
42965;DHT22;28604;51.204;22.552;2023-03-18T10:40:33;15.30;41.50
42965;DHT22;28604;51.204;22.552;2023-03-18T10:43:02;15.20;42.80
42965;DHT22;28604;51.204;22.552;2023-03-18T10:45:30;15.30;43.00
42965;DHT22;28604;51.204;22.552;2023-03-18T10:48:03;15.30;42.60
42965;DHT22;28604;51.204;22.552;2023-03-18T10:50:42;15.00;43.50
42965;DHT22;28604;51.204;22.552;2023-03-18T10:53:17;15.10;43.50
42965;DHT22;28604;51.204;22.552;2023-03-18T10:56:10;15.20;43.60
42965;DHT22;28604;51.204;22.552;2023-03-18T10:58:41;15.60;42.70
42965;DHT22;28604;51.204;22.552;2023-03-18T11:01:10;15.80;42.50
42965;DHT22;28604;51.204;22.552;2023-03-18T11:03:55;15.90;42.10
42965;DHT22;28604;51.204;22.552;2023-03-18T11:06:34;16.10;41.00
42965;DHT22;28604;51.204;22.552;2023-03-18T11:09:07;15.40;41.60
42965;DHT22;28604;51.204;22.552;2023-03-18T11:11:36;15.20;42.10
42965;DHT22;28604;51.204;22.552;2023-03-18T11:14:13;15.20;42.50
42965;DHT22;28604;51.204;22.552;2023-03-18T11:17:02;15.50;42.40
42965;DHT22;28604;51.204;22.552;2023-03-18T11:19:40;15.50;41.50
42965;DHT22;28604;51.204;22.552;2023-03-18T11:22:21;15.40;41.20
42965;DHT22;28604;51.204;22.552;2023-03-18T11:27:37;15.40;42.70
42965;DHT22;28604;51.204;22.552;2023-03-18T11:30:34;15.30;41.90
42965;DHT22;28604;51.204;22.552;2023-03-18T11:35:41;15.00;43.00
42965;DHT22;28604;51.204;22.552;2023-03-18T11:38:15;15.10;43.20
42965;DHT22;28604;51.204;22.552;2023-03-18T11:40:42;15.00;42.80
42965;DHT22;28604;51.204;22.552;2023-03-18T11:43:21;15.10;43.90
42965;DHT22;28604;51.204;22.552;2023-03-18T11:45:57;15.10;43.90
42965;DHT22;28604;51.204;22.552;2023-03-18T11:48:36;14.80;43.50
42965;DHT22;28604;51.204;22.552;2023-03-18T11:56:25;14.40;45.80
42965;DHT22;28604;51.204;22.552;2023-03-18T12:02:25;14.20;44.50
42965;DHT22;28604;51.204;22.552;2023-03-18T12:07:44;14.10;46.00
42965;DHT22;28604;51.204;22.552;2023-03-18T12:13:04;14.50;43.50
42965;DHT22;28604;51.204;22.552;2023-03-18T12:21:23;14.40;45.60
42965;DHT22;28604;51.204;22.552;2023-03-18T12:24:14;14.40;45.30
42965;DHT22;28604;51.204;22.552;2023-03-18T12:30:03;14.60;46.10
42965;DHT22;28604;51.204;22.552;2023-03-18T12:35:23;14.90;45.50
42965;DHT22;28604;51.204;22.552;2023-03-18T12:38:23;14.90;44.80
42965;DHT22;28604;51.204;22.552;2023-03-18T12:46:17;14.90;45.10
42965;DHT22;28604;51.204;22.552;2023-03-18T12:49:09;15.10;45.00
42965;DHT22;28604;51.204;22.552;2023-03-18T12:51:56;15.10;45.60
42965;DHT22;28604;51.204;22.552;2023-03-18T12:54:31;15.00;44.50
42965;DHT22;28604;51.204;22.552;2023-03-18T13:00:02;15.00;43.40
42965;DHT22;28604;51.204;22.552;2023-03-18T13:02:52;14.90;44.10
42965;DHT22;28604;51.204;22.552;2023-03-18T13:08:58;14.90;44.50
42965;DHT22;28604;51.204;22.552;2023-03-18T13:17:38;15.00;44.30
42965;DHT22;28604;51.204;22.552;2023-03-18T13:20:23;14.80;43.90
42965;DHT22;28604;51.204;22.552;2023-03-18T13:28:37;14.90;44.70
42965;DHT22;28604;51.204;22.552;2023-03-18T13:42:40;14.90;41.70
42965;DHT22;28604;51.204;22.552;2023-03-18T13:48:16;14.70;40.30
42965;DHT22;28604;51.204;22.552;2023-03-18T13:50:45;14.70;41.80
42965;DHT22;28604;51.204;22.552;2023-03-18T13:53:25;14.90;41.60
42965;DHT22;28604;51.204;22.552;2023-03-18T13:56:01;15.00;38.70
42965;DHT22;28604;51.204;22.552;2023-03-18T13:58:34;14.90;39.20
42965;DHT22;28604;51.204;22.552;2023-03-18T14:01:12;15.00;40.00
42965;DHT22;28604;51.204;22.552;2023-03-18T14:13:52;14.80;39.30
42965;DHT22;28604;51.204;22.552;2023-03-18T14:16:36;14.70;39.20
42965;DHT22;28604;51.204;22.552;2023-03-18T14:19:22;14.70;40.20
42965;DHT22;28604;51.204;22.552;2023-03-18T14:22:04;14.60;39.30
42965;DHT22;28604;51.204;22.552;2023-03-18T14:24:33;14.70;40.10
42965;DHT22;28604;51.204;22.552;2023-03-18T14:29:37;14.80;39.50
42965;DHT22;28604;51.204;22.552;2023-03-18T14:32:05;14.70;39.80
42965;DHT22;28604;51.204;22.552;2023-03-18T14:35:03;14.60;40.20
42965;DHT22;28604;51.204;22.552;2023-03-18T14:37:31;14.50;40.60
42965;DHT22;28604;51.204;22.552;2023-03-18T14:40:18;14.40;40.30
42965;DHT22;28604;51.204;22.552;2023-03-18T14:42:59;14.30;40.10
42965;DHT22;28604;51.204;22.552;2023-03-18T14:45:33;14.40;40.30
42965;DHT22;28604;51.204;22.552;2023-03-18T14:48:04;14.40;40.50
42965;DHT22;28604;51.204;22.552;2023-03-18T14:50:50;14.30;40.60
42965;DHT22;28604;51.204;22.552;2023-03-18T14:55:47;14.20;41.30
42965;DHT22;28604;51.204;22.552;2023-03-18T14:58:18;14.30;41.80
42965;DHT22;28604;51.204;22.552;2023-03-18T15:00:47;14.30;41.60
42965;DHT22;28604;51.204;22.552;2023-03-18T15:03:26;14.40;41.80
42965;DHT22;28604;51.204;22.552;2023-03-18T15:05:58;14.40;42.00
42965;DHT22;28604;51.204;22.552;2023-03-18T15:08:27;14.40;42.30
42965;DHT22;28604;51.204;22.552;2023-03-18T15:10:55;14.40;41.20
42965;DHT22;28604;51.204;22.552;2023-03-18T15:13:22;14.30;41.20
42965;DHT22;28604;51.204;22.552;2023-03-18T15:15:52;14.30;42.00
42965;DHT22;28604;51.204;22.552;2023-03-18T15:18:24;14.30;41.70
42965;DHT22;28604;51.204;22.552;2023-03-18T15:20:58;14.20;41.90
42965;DHT22;28604;51.204;22.552;2023-03-18T15:23:38;14.20;42.00
42965;DHT22;28604;51.204;22.552;2023-03-18T15:26:24;14.10;42.40
42965;DHT22;28604;51.204;22.552;2023-03-18T15:28:55;14.10;42.80
42965;DHT22;28604;51.204;22.552;2023-03-18T15:31:23;14.00;42.70
42965;DHT22;28604;51.204;22.552;2023-03-18T15:34:40;14.10;43.10
42965;DHT22;28604;51.204;22.552;2023-03-18T15:36:42;14.10;43.40
42965;DHT22;28604;51.204;22.552;2023-03-18T15:39:36;13.90;43.20
42965;DHT22;28604;51.204;22.552;2023-03-18T15:42:14;13.90;43.80
42965;DHT22;28604;51.204;22.552;2023-03-18T15:44:42;13.70;44.10
42965;DHT22;28604;51.204;22.552;2023-03-18T15:47:19;13.70;43.90
42965;DHT22;28604;51.204;22.552;2023-03-18T15:49:53;13.60;44.40
42965;DHT22;28604;51.204;22.552;2023-03-18T15:52:25;13.50;44.30
42965;DHT22;28604;51.204;22.552;2023-03-18T15:54:51;13.50;45.00
42965;DHT22;28604;51.204;22.552;2023-03-18T15:57:31;13.40;45.40
42965;DHT22;28604;51.204;22.552;2023-03-18T15:59:59;13.30;45.80
42965;DHT22;28604;51.204;22.552;2023-03-18T16:02:26;13.30;45.70
42965;DHT22;28604;51.204;22.552;2023-03-18T16:05:22;13.10;46.00
42965;DHT22;28604;51.204;22.552;2023-03-18T16:07:49;13.00;46.50
42965;DHT22;28604;51.204;22.552;2023-03-18T16:10:18;12.90;47.00
42965;DHT22;28604;51.204;22.552;2023-03-18T16:12:49;12.70;47.10
42965;DHT22;28604;51.204;22.552;2023-03-18T16:15:19;12.60;47.00
42965;DHT22;28604;51.204;22.552;2023-03-18T16:17:52;12.50;47.70
42965;DHT22;28604;51.204;22.552;2023-03-18T16:20:28;12.40;47.50
42965;DHT22;28604;51.204;22.552;2023-03-18T16:22:55;12.30;47.50
42965;DHT22;28604;51.204;22.552;2023-03-18T16:25:22;12.20;47.50
42965;DHT22;28604;51.204;22.552;2023-03-18T16:27:51;12.20;47.80
42965;DHT22;28604;51.204;22.552;2023-03-18T16:30:21;12.10;48.40
42965;DHT22;28604;51.204;22.552;2023-03-18T16:32:50;11.90;48.70
42965;DHT22;28604;51.204;22.552;2023-03-18T16:35:19;11.80;48.70
42965;DHT22;28604;51.204;22.552;2023-03-18T16:37:46;11.60;48.70
42965;DHT22;28604;51.204;22.552;2023-03-18T16:40:14;11.50;49.10
42965;DHT22;28604;51.204;22.552;2023-03-18T16:42:43;11.40;49.50
42965;DHT22;28604;51.204;22.552;2023-03-18T16:45:14;11.40;49.90
42965;DHT22;28604;51.204;22.552;2023-03-18T16:47:43;11.30;50.10
42965;DHT22;28604;51.204;22.552;2023-03-18T16:50:17;11.20;50.30
42965;DHT22;28604;51.204;22.552;2023-03-18T16:52:44;11.10;51.00
42965;DHT22;28604;51.204;22.552;2023-03-18T16:55:13;11.10;51.10
42965;DHT22;28604;51.204;22.552;2023-03-18T16:57:46;10.90;51.60
42965;DHT22;28604;51.204;22.552;2023-03-18T17:00:23;10.80;52.00
42965;DHT22;28604;51.204;22.552;2023-03-18T17:02:50;10.80;52.30
42965;DHT22;28604;51.204;22.552;2023-03-18T17:05:21;10.70;52.50
42965;DHT22;28604;51.204;22.552;2023-03-18T17:07:48;10.60;52.40
42965;DHT22;28604;51.204;22.552;2023-03-18T17:10:18;10.60;52.90
42965;DHT22;28604;51.204;22.552;2023-03-18T17:12:49;10.60;53.00
42965;DHT22;28604;51.204;22.552;2023-03-18T17:15:18;10.50;53.40
42965;DHT22;28604;51.204;22.552;2023-03-18T17:17:47;10.40;53.50
42965;DHT22;28604;51.204;22.552;2023-03-18T17:20:20;10.40;53.40
42965;DHT22;28604;51.204;22.552;2023-03-18T17:22:47;10.40;53.30
42965;DHT22;28604;51.204;22.552;2023-03-18T17:25:13;10.40;53.20
42965;DHT22;28604;51.204;22.552;2023-03-18T17:27:53;10.40;52.90
42965;DHT22;28604;51.204;22.552;2023-03-18T17:30:25;10.40;53.10
42965;DHT22;28604;51.204;22.552;2023-03-18T17:32:53;10.30;53.50
42965;DHT22;28604;51.204;22.552;2023-03-18T17:35:21;10.30;52.90
42965;DHT22;28604;51.204;22.552;2023-03-18T17:37:47;10.30;53.30
42965;DHT22;28604;51.204;22.552;2023-03-18T17:40:16;10.20;53.70